This is the latest recevied weather packets stored in our database for station/object XE2CT-20. If no packets are shown the sender has not sent any weather packets the latest 10 day(s).
| Time | Temp. | Humidity | Pressure | Rain* | Wind** | Luminosity | Snow |
|---|---|---|---|---|---|---|---|
| 1777948107 | 30° C | 52% | 1013 hPa | - | - | - | - |
| 1777947206 | 30° C | 52% | 1013 hPa | - | - | - | - |
| 1777946305 | 31.11° C | 48% | 1011 hPa | - | - | - | - |
| 1777945404 | 31.11° C | 49% | 1011 hPa | - | - | - | - |
| 1777944503 | 31.11° C | 49% | 1011 hPa | - | - | - | - |
| 1777943602 | 32.22° C | 42% | 1008 hPa | - | - | - | - |
| 1777942700 | 32.22° C | 42% | 1009 hPa | - | - | - | - |
| 1777941799 | 33.33° C | 39% | 1006 hPa | - | - | - | - |
| 1777940898 | 33.33° C | 37% | 1006 hPa | - | - | - | - |
| 1777939997 | 33.89° C | 36% | 1005 hPa | - | - | - | - |
| 1777939096 | 34.44° C | 35% | 1004 hPa | - | - | - | - |
| 1777938195 | 35.56° C | 35% | 1004 hPa | - | - | - | - |
| 1777937294 | 36.67° C | 31% | 1001 hPa | - | - | - | - |
| 1777936393 | 40° C | 26% | 997 hPa | - | - | - | - |
| 1777935492 | 39.44° C | 27% | 997 hPa | - | - | - | - |
| 1777934591 | 37.22° C | 32% | 1000 hPa | - | - | - | - |
| 1777933690 | 37.22° C | 31% | 999 hPa | - | - | - | - |
| 1777932789 | 35.56° C | 35% | 1001 hPa | - | - | - | - |
| 1777931888 | 35.56° C | 35% | 1001 hPa | - | - | - | - |
| 1777930987 | 32.78° C | 43% | 1007 hPa | - | - | - | - |
| 1777930086 | 34.44° C | 36% | 1002 hPa | - | - | - | - |
| 1777929185 | 35° C | 34% | 1001 hPa | - | - | - | - |
| 1777928284 | 33.89° C | 37% | 1003 hPa | - | - | - | - |
| 1777927382 | 34.44° C | 35% | 1002 hPa | - | - | - | - |
| 1777926481 | 33.89° C | 36% | 1003 hPa | - | - | - | - |
* Rain since midnight (hover to see other rain measurements)
** Current wind speed in m/s (hover to see current wind gust speed)